createdAt,value
2023-04-04T00:00:48.335Z,-0.80
2023-04-04T00:03:15.497Z,-0.90
2023-04-04T00:05:45.240Z,-0.90
2023-04-04T00:08:11.993Z,-0.90
2023-04-04T00:10:39.073Z,-1.00
2023-04-04T00:13:07.632Z,-1.00
2023-04-04T00:15:37.380Z,-1.00
2023-04-04T00:18:04.557Z,-1.10
2023-04-04T00:20:31.838Z,-1.00
2023-04-04T00:22:59.033Z,-1.00
2023-04-04T00:25:25.866Z,-1.10
2023-04-04T00:27:52.736Z,-1.10
2023-04-04T00:30:19.809Z,-1.00
2023-04-04T00:32:46.551Z,-1.00
2023-04-04T00:35:13.252Z,-1.00
2023-04-04T00:37:42.904Z,-1.10
2023-04-04T00:40:12.156Z,-1.10
2023-04-04T00:42:39.272Z,-1.20
2023-04-04T00:45:09.048Z,-1.10
2023-04-04T00:47:37.862Z,-1.20
2023-04-04T00:50:05.496Z,-1.20
2023-04-04T00:52:32.276Z,-1.20
2023-04-04T00:55:00.541Z,-1.30
2023-04-04T00:57:29.330Z,-1.30
2023-04-04T00:59:57.677Z,-1.30
2023-04-04T01:02:25.493Z,-1.40
2023-04-04T01:04:52.423Z,-1.40
2023-04-04T01:07:19.719Z,-1.30
2023-04-04T01:09:48.136Z,-1.40
2023-04-04T01:12:14.894Z,-1.50
2023-04-04T01:14:44.088Z,-1.50
2023-04-04T01:17:11.484Z,-1.50
2023-04-04T01:19:51.956Z,-1.50
2023-04-04T01:22:19.764Z,-1.50
2023-04-04T01:24:48.419Z,-1.40
2023-04-04T01:27:16.264Z,-1.50
2023-04-04T01:29:42.969Z,-1.50
2023-04-04T01:32:33.874Z,-1.40
2023-04-04T01:35:27.283Z,-1.50
2023-04-04T01:38:08.957Z,-1.60
2023-04-04T01:40:38.374Z,-1.60
2023-04-04T01:43:05.489Z,-1.60
2023-04-04T01:45:32.943Z,-1.60
2023-04-04T01:48:02.898Z,-1.60
2023-04-04T01:50:29.701Z,-1.60
2023-04-04T01:52:56.477Z,-1.60
2023-04-04T01:55:23.590Z,-1.70
2023-04-04T01:57:51.395Z,-1.70
2023-04-04T02:00:18.283Z,-1.60
2023-04-04T02:02:45.117Z,-1.60
2023-04-04T02:05:11.993Z,-1.60
2023-04-04T02:07:38.799Z,-1.60
2023-04-04T02:10:06.076Z,-1.60
2023-04-04T02:12:33.279Z,-1.60
2023-04-04T02:15:00.385Z,-1.70
2023-04-04T02:17:28.305Z,-1.70
2023-04-04T02:19:55.432Z,-1.80
2023-04-04T02:22:22.177Z,-1.80
2023-04-04T02:24:48.896Z,-1.80
2023-04-04T02:27:15.754Z,-1.80
2023-04-04T02:29:42.699Z,-1.80
2023-04-04T02:32:09.376Z,-1.90
2023-04-04T02:34:36.147Z,-1.90
2023-04-04T02:37:03.885Z,-1.90
2023-04-04T02:39:31.894Z,-1.90
2023-04-04T02:41:58.686Z,-1.90
2023-04-04T02:44:25.409Z,-1.80
2023-04-04T02:46:55.852Z,-1.80
2023-04-04T02:49:22.753Z,-1.80
2023-04-04T02:51:49.558Z,-1.80
2023-04-04T02:54:16.323Z,-1.80
2023-04-04T02:56:42.994Z,-1.80
2023-04-04T02:59:10.030Z,-1.70
2023-04-04T03:01:36.884Z,-1.70
2023-04-04T03:04:04.647Z,-1.70
2023-04-04T03:06:34.509Z,-1.70
2023-04-04T03:09:01.451Z,-1.60
2023-04-04T03:11:28.189Z,-1.60
2023-04-04T03:13:56.044Z,-1.70
2023-04-04T03:16:23.451Z,-1.70
2023-04-04T03:18:50.460Z,-1.70
2023-04-04T03:21:17.225Z,-1.70
2023-04-04T03:23:44.008Z,-1.70
2023-04-04T03:26:10.824Z,-1.80
2023-04-04T03:28:37.613Z,-1.80
2023-04-04T03:31:06.061Z,-1.80
2023-04-04T03:33:37.895Z,-1.90
2023-04-04T03:36:12.465Z,-1.90
2023-04-04T03:38:39.741Z,-1.90
2023-04-04T03:41:07.394Z,-2.00
2023-04-04T03:43:34.450Z,-1.90
2023-04-04T03:46:05.867Z,-1.90
2023-04-04T03:48:36.239Z,-1.90
2023-04-04T03:51:04.719Z,-2.00
2023-04-04T03:53:32.168Z,-2.00
2023-04-04T03:55:59.728Z,-2.00
2023-04-04T03:58:30.367Z,-2.10
2023-04-04T04:00:59.922Z,-2.20
2023-04-04T04:03:26.849Z,-2.30
2023-04-04T04:05:54.003Z,-2.30
2023-04-04T04:08:21.030Z,-2.40
2023-04-04T04:10:48.691Z,-2.40
2023-04-04T04:13:15.683Z,-2.40
2023-04-04T04:15:42.454Z,-2.40
2023-04-04T04:18:09.303Z,-2.40
2023-04-04T04:20:39.375Z,-2.40
2023-04-04T04:23:08.012Z,-2.30
2023-04-04T04:25:34.796Z,-2.30
2023-04-04T04:28:01.530Z,-2.30
2023-04-04T04:30:28.390Z,-2.40
2023-04-04T04:32:55.172Z,-2.40
2023-04-04T04:35:22.008Z,-2.40
2023-04-04T04:37:48.914Z,-2.40
2023-04-04T04:40:16.418Z,-2.40
2023-04-04T04:42:46.725Z,-2.40
2023-04-04T04:45:13.716Z,-2.40
2023-04-04T04:47:40.989Z,-2.40
2023-04-04T04:50:10.330Z,-2.40
2023-04-04T04:52:38.286Z,-2.40
2023-04-04T04:55:06.082Z,-2.50
2023-04-04T04:57:34.335Z,-2.50
2023-04-04T05:00:01.555Z,-2.50
2023-04-04T05:02:28.411Z,-2.40
2023-04-04T05:04:56.368Z,-2.40
2023-04-04T05:07:23.490Z,-2.40
2023-04-04T05:09:53.282Z,-2.30
2023-04-04T05:12:20.366Z,-2.30
2023-04-04T05:14:48.461Z,-2.30
2023-04-04T05:17:15.517Z,-2.20
2023-04-04T05:19:42.325Z,-2.20
2023-04-04T05:22:09.288Z,-2.10
2023-04-04T05:24:36.063Z,-2.10
2023-04-04T05:27:02.819Z,-2.00
2023-04-04T05:29:29.874Z,-1.90
2023-04-04T05:31:57.289Z,-1.90
2023-04-04T05:34:25.657Z,-1.90
2023-04-04T05:36:53.489Z,-1.80
2023-04-04T05:39:20.247Z,-1.70
2023-04-04T05:41:49.240Z,-1.60
2023-04-04T05:44:16.223Z,-1.50
2023-04-04T05:46:42.985Z,-1.40
2023-04-04T05:49:09.753Z,-1.40
2023-04-04T05:51:36.547Z,-1.30
2023-04-04T05:54:03.341Z,-1.10
2023-04-04T05:56:30.069Z,-1.10
2023-04-04T05:58:57.209Z,-0.90
2023-04-04T06:01:25.415Z,-0.80
2023-04-04T06:03:52.302Z,-0.60
2023-04-04T06:06:19.543Z,-0.40
2023-04-04T06:08:53.563Z,-0.30
2023-04-04T06:11:24.234Z,0.20
2023-04-04T06:13:55.140Z,0.90
2023-04-04T06:16:24.421Z,1.70
2023-04-04T06:18:51.312Z,2.50
2023-04-04T07:33:30.436Z,3.00
2023-04-04T07:35:57.241Z,6.30
2023-04-04T07:38:24.051Z,6.10
2023-04-04T07:40:51.113Z,6.00
2023-04-04T07:43:17.850Z,5.80
2023-04-04T07:45:44.775Z,6.30
2023-04-04T07:48:11.568Z,6.60
2023-04-04T07:50:38.490Z,6.20
2023-04-04T07:53:05.449Z,5.90
2023-04-04T07:55:32.159Z,6.00
2023-04-04T07:57:59.088Z,5.90
2023-04-04T08:00:26.554Z,6.10
2023-04-04T08:02:59.054Z,5.80
2023-04-04T08:05:26.175Z,6.00
2023-04-04T20:07:03.442Z,6.10
2023-04-04T20:09:39.880Z,2.70
2023-04-04T20:12:09.432Z,2.50
2023-04-04T20:14:36.575Z,2.50
2023-04-04T20:17:03.951Z,2.50
2023-04-04T20:19:33.099Z,2.60
2023-04-04T20:22:00.251Z,2.50
2023-04-04T20:24:28.444Z,2.50
2023-04-04T20:34:32.760Z,2.40
2023-04-04T20:37:00.343Z,2.00
2023-04-04T20:39:41.362Z,1.90
2023-04-04T20:42:26.091Z,1.90
2023-04-04T20:44:54.621Z,1.80
2023-04-04T20:47:49.985Z,1.70
2023-04-04T20:50:27.081Z,1.60
2023-04-04T20:52:58.924Z,1.50
2023-04-04T20:55:27.427Z,1.50
2023-04-04T20:57:57.237Z,1.40
2023-04-04T21:00:33.977Z,1.40
2023-04-04T21:03:08.532Z,1.40
2023-04-04T21:05:38.617Z,1.40
2023-04-04T21:08:43.541Z,1.50
2023-04-04T21:11:11.674Z,1.60
2023-04-04T21:13:43.941Z,1.70
2023-04-04T21:16:13.573Z,1.80
2023-04-04T21:18:41.890Z,2.00
2023-04-04T21:21:12.433Z,2.00
2023-04-04T21:23:46.077Z,2.10
2023-04-04T21:26:34.797Z,2.10
2023-04-04T21:29:16.869Z,2.10
2023-04-04T21:31:43.890Z,2.10
2023-04-04T21:34:13.168Z,2.10
2023-04-04T21:36:43.519Z,2.10
2023-04-04T21:39:13.998Z,2.00
2023-04-04T21:41:42.806Z,2.10
2023-04-04T21:44:10.464Z,2.10
2023-04-04T21:46:39.433Z,2.00
2023-04-04T21:49:07.881Z,2.00
2023-04-04T21:51:35.430Z,2.00
2023-04-04T21:54:02.853Z,2.00
2023-04-04T21:56:32.736Z,2.00
2023-04-04T21:59:01.636Z,2.00
2023-04-04T22:01:28.916Z,2.00
2023-04-04T22:03:59.183Z,2.00
2023-04-04T22:06:29.439Z,1.90
2023-04-04T22:08:58.126Z,1.90
2023-04-04T22:11:27.133Z,1.90
2023-04-04T22:14:03.972Z,1.90
2023-04-04T22:16:36.940Z,1.90
2023-04-04T22:19:04.194Z,1.80
2023-04-04T22:21:36.610Z,1.80
2023-04-04T22:24:05.629Z,1.80
2023-04-04T22:26:33.143Z,1.80
2023-04-04T22:29:04.267Z,1.80
2023-04-04T22:31:34.353Z,1.80
2023-04-04T22:34:02.985Z,1.70
2023-04-04T22:36:29.922Z,1.70
2023-04-04T22:38:57.316Z,1.70
2023-04-04T22:41:29.053Z,1.70
2023-04-04T22:43:57.087Z,1.70
2023-04-04T22:46:29.224Z,1.70
2023-04-04T22:49:04.856Z,1.70
2023-04-04T22:51:45.668Z,1.70
2023-04-04T22:54:14.887Z,1.70
2023-04-04T22:56:41.795Z,1.60
2023-04-04T22:59:08.553Z,1.60
2023-04-04T23:01:35.438Z,1.50
2023-04-04T23:04:02.415Z,1.50
2023-04-04T23:06:29.548Z,1.40
2023-04-04T23:08:56.460Z,1.30
2023-04-04T23:11:23.369Z,1.30
2023-04-04T23:13:51.958Z,1.20
2023-04-04T23:16:18.824Z,1.20
2023-04-04T23:18:45.801Z,1.10
2023-04-04T23:21:15.607Z,1.00
2023-04-04T23:23:45.489Z,1.00
2023-04-04T23:26:13.474Z,0.90
2023-04-04T23:28:40.286Z,0.90
2023-04-04T23:31:07.598Z,0.90
2023-04-04T23:33:34.327Z,0.80
2023-04-04T23:36:01.105Z,0.90
2023-04-04T23:38:27.782Z,0.80
2023-04-04T23:40:57.394Z,0.80
2023-04-04T23:43:31.645Z,0.80
2023-04-04T23:46:00.281Z,0.70
2023-04-04T23:48:27.237Z,0.70
2023-04-04T23:50:56.726Z,0.60
2023-04-04T23:53:24.257Z,0.50
2023-04-04T23:55:50.999Z,0.40
2023-04-04T23:58:17.679Z,0.40
